createdAt,value
2022-10-21T00:03:33.099Z,101287.41
2022-10-21T00:08:35.849Z,101287.22
2022-10-21T00:13:39.630Z,101278.72
2022-10-21T00:18:43.328Z,101272.72
2022-10-21T00:23:46.094Z,101251.34
2022-10-21T00:28:48.455Z,101241.56
2022-10-21T00:33:50.804Z,101232.28
2022-10-21T00:38:53.082Z,101220.00
2022-10-21T00:43:57.456Z,101221.91
2022-10-21T00:49:00.595Z,101197.19
2022-10-21T00:54:03.427Z,101187.25
2022-10-21T00:59:06.037Z,101180.63
2022-10-21T01:04:08.385Z,101167.78
2022-10-21T01:09:11.055Z,101161.53
2022-10-21T01:14:13.475Z,101149.72
2022-10-21T01:19:40.486Z,101153.03
2022-10-21T01:24:42.759Z,101148.88
2022-10-21T01:30:07.130Z,101136.44
2022-10-21T01:35:45.923Z,101110.72
2022-10-21T01:40:57.480Z,101112.41
2022-10-21T01:46:15.911Z,101108.88
2022-10-21T01:51:18.887Z,101101.00
2022-10-21T01:56:21.793Z,101112.41
2022-10-21T02:01:25.003Z,101093.75
2022-10-21T02:06:27.933Z,101095.84
2022-10-21T02:11:30.431Z,101094.56
2022-10-21T02:16:37.147Z,101063.50
2022-10-21T02:21:39.711Z,101066.63
2022-10-21T02:26:42.069Z,101054.81
2022-10-21T02:32:03.359Z,101044.44
2022-10-21T02:37:27.001Z,101041.31
2022-10-21T02:42:33.097Z,101030.13
2022-10-21T02:47:38.263Z,101038.22
2022-10-21T02:52:40.818Z,101043.63
2022-10-21T02:57:43.142Z,101040.06
2022-10-21T03:02:45.438Z,101040.09
2022-10-21T03:07:47.850Z,101024.97
2022-10-21T03:12:50.917Z,101015.03
2022-10-21T03:17:53.256Z,101012.56
2022-10-21T03:22:55.547Z,101009.41
2022-10-21T03:27:57.916Z,100993.28
2022-10-21T03:33:00.283Z,100988.53
2022-10-21T03:38:02.677Z,100989.53
2022-10-21T03:43:04.984Z,100978.34
2022-10-21T03:48:07.385Z,101000.75
2022-10-21T03:53:18.559Z,101004.03
2022-10-21T03:58:28.426Z,100984.72
2022-10-21T04:03:30.742Z,100981.03
2022-10-21T04:08:33.075Z,100968.78
2022-10-21T04:13:35.920Z,100966.50
2022-10-21T04:18:38.196Z,100962.34
2022-10-21T04:23:40.527Z,100946.34
2022-10-21T04:28:42.772Z,100942.41
2022-10-21T04:33:45.237Z,100947.47
2022-10-21T04:38:48.106Z,100941.44
2022-10-21T04:43:50.486Z,100929.16
2022-10-21T04:48:52.803Z,100923.41
2022-10-21T04:53:55.068Z,100915.94
2022-10-21T04:58:57.361Z,100903.56
2022-10-21T05:03:59.711Z,100908.28
2022-10-21T05:09:02.642Z,100880.94
2022-10-21T05:14:05.052Z,100871.38
2022-10-21T05:19:07.357Z,100868.28
2022-10-21T05:24:10.001Z,100860.00
2022-10-21T05:29:12.472Z,100843.84
2022-10-21T05:34:14.856Z,100822.47
2022-10-21T05:39:17.185Z,100831.13
2022-10-21T05:44:19.506Z,100839.97
2022-10-21T05:49:21.810Z,100833.44
2022-10-21T05:54:24.066Z,100824.66
2022-10-21T05:59:27.036Z,100835.19
2022-10-21T06:04:29.305Z,100839.69
2022-10-21T06:09:31.643Z,100836.22
2022-10-21T06:14:36.348Z,100855.44
2022-10-21T06:19:38.727Z,100847.56
2022-10-21T06:24:41.068Z,100840.97
2022-10-21T06:29:43.323Z,100824.81
2022-10-21T06:34:45.640Z,100829.72
2022-10-21T06:39:47.981Z,100815.94
2022-10-21T06:44:50.200Z,100808.69
2022-10-21T06:49:52.425Z,100802.59
2022-10-21T06:54:54.724Z,100794.47
2022-10-21T06:59:57.080Z,100800.13
2022-10-21T07:04:59.471Z,100810.38
2022-10-21T07:10:01.799Z,100809.72
2022-10-21T07:15:04.434Z,100783.47
2022-10-21T07:20:07.302Z,100777.38
2022-10-21T07:25:09.869Z,100764.28
2022-10-21T07:30:12.366Z,100753.00
2022-10-21T07:35:14.735Z,100769.22
2022-10-21T07:40:17.084Z,100749.56
2022-10-21T07:45:19.458Z,100740.53
2022-10-21T07:50:22.000Z,100729.56
2022-10-21T07:55:24.320Z,100710.06
2022-10-21T08:00:26.649Z,100705.25
2022-10-21T08:05:28.940Z,100711.50
2022-10-21T08:10:31.219Z,100714.06
2022-10-21T08:15:33.593Z,100686.53
2022-10-21T08:20:43.432Z,100678.09
2022-10-21T08:25:50.414Z,100674.19
2022-10-21T08:30:52.947Z,100666.06
2022-10-21T08:35:55.233Z,100668.88
2022-10-21T08:40:57.546Z,100676.06
2022-10-21T08:46:10.232Z,100683.13
2022-10-21T08:51:34.276Z,100671.53
2022-10-21T08:56:36.593Z,100656.19
2022-10-21T09:01:44.744Z,100652.25
2022-10-21T09:07:02.719Z,100661.53
2022-10-21T09:12:16.841Z,100655.09
2022-10-21T09:17:34.604Z,100662.59
2022-10-21T09:22:58.664Z,100671.63
2022-10-21T09:28:03.479Z,100670.34
2022-10-21T09:33:31.824Z,100668.25
2022-10-21T09:38:46.273Z,100666.22
2022-10-21T09:43:49.330Z,100647.41
2022-10-21T09:49:23.175Z,100663.00
2022-10-21T09:54:19.154Z,100662.28
2022-10-21T09:59:23.508Z,100652.34
2022-10-21T10:04:33.815Z,100646.81
2022-10-21T10:09:39.195Z,100638.97
2022-10-21T10:14:43.759Z,100649.28
2022-10-21T10:20:06.169Z,100655.69
2022-10-21T10:25:09.653Z,100664.09
2022-10-21T10:30:14.279Z,100650.25
2022-10-21T10:35:25.724Z,100650.72
2022-10-21T10:40:39.667Z,100646.44
2022-10-21T10:45:55.415Z,100643.19
2022-10-21T10:50:58.377Z,100619.22
2022-10-21T10:56:06.409Z,100608.81
2022-10-21T11:01:13.851Z,100589.22
2022-10-21T11:06:19.640Z,100593.41
2022-10-21T11:11:26.852Z,100590.72
2022-10-21T11:16:57.289Z,100584.50
2022-10-21T11:22:25.527Z,100583.47
2022-10-21T11:27:39.790Z,100578.72
2022-10-21T11:33:05.430Z,100586.84
2022-10-21T11:38:45.190Z,100574.94
2022-10-21T11:44:14.907Z,100571.41
2022-10-21T11:49:37.299Z,100561.28
2022-10-21T11:55:09.984Z,100558.69
2022-10-21T12:00:21.726Z,100542.13
2022-10-21T12:05:32.814Z,100550.56
2022-10-21T12:10:47.831Z,100534.16
2022-10-21T12:15:52.635Z,100543.47
2022-10-21T12:20:55.583Z,100546.69
2022-10-21T12:26:25.634Z,100531.81
2022-10-21T12:31:30.645Z,100529.63
2022-10-21T12:36:46.891Z,100520.16
2022-10-21T12:41:49.285Z,100490.47
2022-10-21T12:46:57.914Z,100489.44
2022-10-21T12:52:03.051Z,100485.34
2022-10-21T12:57:07.826Z,100478.81
2022-10-21T13:02:18.276Z,100493.53
2022-10-21T13:07:26.607Z,100496.47
2022-10-21T13:12:31.744Z,100489.41
2022-10-21T13:17:54.871Z,100486.91
2022-10-21T13:23:29.483Z,100472.28
2022-10-21T13:28:31.984Z,100477.69
2022-10-21T13:33:37.530Z,100475.78
2022-10-21T13:38:51.463Z,100466.53
2022-10-21T13:43:55.990Z,100452.13
2022-10-21T13:49:01.388Z,100463.75
2022-10-21T13:54:10.973Z,100456.16
2022-10-21T13:59:25.046Z,100445.31
2022-10-21T14:04:34.881Z,100449.94
2022-10-21T14:09:41.171Z,100437.13
2022-10-21T14:14:43.566Z,100437.38
2022-10-21T14:19:56.959Z,100445.03
2022-10-21T14:25:02.050Z,100451.00
2022-10-21T14:30:07.555Z,100460.22
2022-10-21T14:35:10.316Z,100473.25
2022-10-21T14:40:32.449Z,100462.66
2022-10-21T14:45:37.144Z,100458.78
2022-10-21T14:50:40.857Z,100450.06
2022-10-21T14:55:43.627Z,100430.25
2022-10-21T15:00:47.114Z,100428.31
2022-10-21T15:05:49.517Z,100418.97
2022-10-21T15:10:58.121Z,100439.38
2022-10-21T15:16:02.715Z,100426.06
2022-10-21T15:21:09.921Z,100430.97
2022-10-21T15:26:24.915Z,100424.44
2022-10-21T15:31:29.220Z,100427.44
2022-10-21T15:36:31.527Z,100422.06
2022-10-21T15:41:33.915Z,100422.56
2022-10-21T15:46:46.161Z,100431.03
2022-10-21T15:51:50.180Z,100429.25
2022-10-21T15:56:54.622Z,100430.69
2022-10-21T16:01:58.136Z,100428.56
2022-10-21T16:07:00.563Z,100419.59
2022-10-21T16:12:02.927Z,100412.53
2022-10-21T16:17:05.342Z,100416.06
2022-10-21T16:22:19.490Z,100436.34
2022-10-21T16:27:31.355Z,100445.38
2022-10-21T16:32:44.133Z,100430.47
2022-10-21T16:37:48.057Z,100444.63
2022-10-21T16:42:51.350Z,100449.50
2022-10-21T16:47:56.794Z,100445.44
2022-10-21T16:53:02.013Z,100438.63
2022-10-21T16:58:04.335Z,100448.63
2022-10-21T17:03:06.603Z,100444.75
2022-10-21T17:08:08.885Z,100436.41
2022-10-21T17:13:12.462Z,100431.41
2022-10-21T17:18:15.800Z,100422.44
2022-10-21T17:23:18.359Z,100427.16
2022-10-21T17:28:20.737Z,100419.25
2022-10-21T17:33:23.619Z,100386.88
2022-10-21T17:38:25.954Z,100404.59
2022-10-21T17:43:28.587Z,100390.50
2022-10-21T17:48:31.016Z,100390.47
2022-10-21T17:53:33.315Z,100392.97
2022-10-21T17:58:35.872Z,100382.03
2022-10-21T18:03:38.899Z,100367.91
2022-10-21T18:08:41.466Z,100363.75
2022-10-21T18:13:44.236Z,100355.03
2022-10-21T18:18:47.003Z,100353.03
2022-10-21T18:23:53.548Z,100349.53
2022-10-21T18:28:58.013Z,100342.72
2022-10-21T18:34:02.302Z,100330.72
2022-10-21T18:39:05.674Z,100323.34
2022-10-21T18:44:09.335Z,100335.44
2022-10-21T18:49:14.020Z,100320.94
2022-10-21T18:54:16.510Z,100319.03
2022-10-21T18:59:18.883Z,100319.28
2022-10-21T19:04:21.171Z,100311.41
2022-10-21T19:09:28.954Z,100313.03
2022-10-21T19:14:33.865Z,100316.00
2022-10-21T19:19:39.317Z,100308.09
2022-10-21T19:24:42.147Z,100308.97
2022-10-21T19:29:44.717Z,100299.41
2022-10-21T19:34:46.970Z,100301.31
2022-10-21T19:39:49.651Z,100309.06
2022-10-21T19:44:52.094Z,100315.06
2022-10-21T19:49:54.523Z,100314.25
2022-10-21T19:54:56.823Z,100316.81
2022-10-21T19:59:59.073Z,100315.34
2022-10-21T20:05:01.485Z,100312.63
2022-10-21T20:10:05.027Z,100309.88
2022-10-21T20:15:07.740Z,100310.34
2022-10-21T20:20:10.194Z,100310.91
2022-10-21T20:25:12.591Z,100306.38
2022-10-21T20:30:14.907Z,100301.25
2022-10-21T20:35:17.191Z,100302.50
2022-10-21T20:40:20.726Z,100309.41
2022-10-21T20:45:23.075Z,100312.97
2022-10-21T20:50:25.674Z,100301.63
2022-10-21T20:55:28.087Z,100292.16
2022-10-21T21:00:30.471Z,100285.63
2022-10-21T21:05:38.123Z,100287.38
2022-10-21T21:10:41.563Z,100279.53
2022-10-21T21:15:43.953Z,100279.31
2022-10-21T21:20:46.196Z,100278.97
2022-10-21T21:25:48.608Z,100284.56
2022-10-21T21:30:53.822Z,100275.28
2022-10-21T21:35:59.423Z,100276.19
2022-10-21T21:41:04.478Z,100264.50
2022-10-21T21:46:08.914Z,100265.72
2022-10-21T21:51:11.141Z,100258.41
2022-10-21T21:56:13.447Z,100256.22
2022-10-21T22:01:20.306Z,100249.72
2022-10-21T22:11:31.052Z,100242.16
2022-10-21T22:16:33.393Z,100230.97
2022-10-21T22:21:35.779Z,100208.47
2022-10-21T22:26:38.056Z,100228.84
2022-10-21T22:31:40.303Z,100232.72
2022-10-21T22:36:42.615Z,100229.16
2022-10-21T22:41:44.938Z,100222.97
2022-10-21T22:46:47.175Z,100215.69
2022-10-21T22:56:56.627Z,100192.88
2022-10-21T23:01:58.862Z,100211.31
2022-10-21T23:07:01.143Z,100201.84
2022-10-21T23:12:03.478Z,100200.84
2022-10-21T23:17:05.776Z,100192.06
2022-10-21T23:22:08.070Z,100197.03
2022-10-21T23:27:11.017Z,100196.47
2022-10-21T23:32:13.335Z,100191.75
2022-10-21T23:37:15.785Z,100200.25
2022-10-21T23:42:18.180Z,100198.06
2022-10-21T23:47:20.488Z,100191.78
2022-10-21T23:52:22.807Z,100187.16
2022-10-21T23:57:26.186Z,100187.72
